Terminal Aerodrome Forecast
Issued by NWS Wilmington, OH

Home | Current Version | Previous Version | Text Only | Print | Product List | Glossary On
Versions: 1 2 3 4 5 6 7 8 9 10 11 12 13 14 15 16 17 18 19 20 21 22 23 24 25 26 27 28 29 30 31 32
000
FTUS41 KILN 300500
TAFCVG
TAF
KCVG 300540Z 3006/0112 23004KT 4SM BR SCT025 SCT090
     FM301400 23007KT P6SM BKN025
     FM301600 23010KT P6SM VCSH BKN035
     FM301800 24012G20KT P6SM VCTS BKN040CB
      TEMPO 3018/3022 3SM TSRA BR OVC020CB
     FM010000 25006KT P6SM SCT050 SCT100=

USA.gov is the U.S. government's official web portal to all federal, state and local government web resources and services.